Home > Products > Valid Products > TAF

000
FTUS41 KBOX 200310 AAA
TAFACK
TAF AMD
KACK 200310Z 2003/2024 34010KT P6SM OVC035
     FM200600 36007KT P6SM BKN025
     FM201200 02007KT P6SM BKN020=



000
FTUS41 KBOX 200310 AAA
TAFACK
TAF AMD
KACK 200310Z 2003/2024 34010KT P6SM OVC035
     FM200600 36007KT P6SM BKN025
     FM201200 02007KT P6SM BKN020=



000
FTUS41 KBOX 192340
TAFBDL
TAF
KBDL 192340Z 2000/2106 32010KT P6SM BKN035
     FM200500 34004KT P6SM SCT250
     FM202100 02004KT P6SM BKN050
     FM210000 VRB03KT P6SM BKN025=



000
FTUS41 KBOX 192340
TAFBOS
TAF
KBOS 192340Z 2000/2106 33009KT P6SM SCT035
     FM200300 34007KT P6SM SCT200
     FM201400 01007KT P6SM BKN020
     FM210200 02008KT 5SM -SHSNRA OVC015=



000
FTUS41 KBOX 192340
TAFPVD
TAF
KPVD 192340Z 2000/2024 33010KT P6SM BKN035
     FM200500 35004KT P6SM SCT250
     FM201200 36004KT P6SM BKN020=



000
FTUS41 KBOX 192340
TAFORH
TAF
KORH 192340Z 2000/2024 33007KT P6SM BKN025
     FM200300 33006KT P6SM BKN100
     FM200500 33006KT P6SM SCT200
     FM201500 01005KT P6SM BKN080
     FM202000 02004KT P6SM BKN025=



000
FTUS41 KBOX 192340
TAFBAF
TAF
KBAF 192340Z 2000/2024 31010KT P6SM BKN035
     FM200400 34004KT P6SM SCT200
     FM201900 VRB03KT P6SM BKN060=



000
FTUS41 KBOX 192340
TAFACK
TAF
KACK 192340Z 2000/2024 33007KT P6SM BKN035
     FM200300 34007KT P6SM BKN100
     FM201000 01007KT P6SM BKN025
     FM201200 02007KT P6SM BKN020=



000
FTUS41 KBOX 192340
TAFBOS
TAF
KBOS 192340Z 2000/2106 33009KT P6SM SCT035
     FM200300 34007KT P6SM SCT200
     FM201400 01007KT P6SM BKN020
     FM210200 02008KT 5SM -SHSNRA OVC015=



000
FTUS41 KBOX 192340
TAFBAF
TAF
KBAF 192340Z 2000/2024 31010KT P6SM BKN035
     FM200400 34004KT P6SM SCT200
     FM201900 VRB03KT P6SM BKN060=



000
FTUS41 KBOX 192340
TAFACK
TAF
KACK 192340Z 2000/2024 33007KT P6SM BKN035
     FM200300 34007KT P6SM BKN100
     FM201000 01007KT P6SM BKN025
     FM201200 02007KT P6SM BKN020=



000
FTUS41 KBOX 192340
TAFBDL
TAF
KBDL 192340Z 2000/2106 32010KT P6SM BKN035
     FM200500 34004KT P6SM SCT250
     FM202100 02004KT P6SM BKN050
     FM210000 VRB03KT P6SM BKN025=



000
FTUS41 KBOX 192340
TAFPVD
TAF
KPVD 192340Z 2000/2024 33010KT P6SM BKN035
     FM200500 35004KT P6SM SCT250
     FM201200 36004KT P6SM BKN020=



000
FTUS41 KBOX 192340
TAFORH
TAF
KORH 192340Z 2000/2024 33007KT P6SM BKN025
     FM200300 33006KT P6SM BKN100
     FM200500 33006KT P6SM SCT200
     FM201500 01005KT P6SM BKN080
     FM202000 02004KT P6SM BKN025=



000
FTUS41 KBOX 192103 AAA
TAFPVD
TAF AMD
KPVD 192103Z 1921/2018 33010KT P6SM OVC035
     FM192300 33006KT P6SM BKN025
     FM200300 34004KT P6SM SCT250
     FM201200 36004KT P6SM BKN020=



000
FTUS41 KBOX 192103 AAA
TAFPVD
TAF AMD
KPVD 192103Z 1921/2018 33010KT P6SM OVC035
     FM192300 33006KT P6SM BKN025
     FM200300 34004KT P6SM SCT250
     FM201200 36004KT P6SM BKN020=



000
FTUS41 KBOX 192102 AAA
TAFBDL
TAF AMD
KBDL 192102Z 1921/2024 31011KT P6SM OVC035
     FM200000 33005KT P6SM BKN030
     FM200500 34004KT P6SM SCT250
     FM202100 02004KT P6SM BKN050=



000
FTUS41 KBOX 192102 AAA
TAFBDL
TAF AMD
KBDL 192102Z 1921/2024 31011KT P6SM OVC035
     FM200000 33005KT P6SM BKN030
     FM200500 34004KT P6SM SCT250
     FM202100 02004KT P6SM BKN050=



000
FTUS41 KBOX 192102 AAA
TAFBOS
TAF AMD
KBOS 192102Z 1921/2024 30010KT P6SM BKN035
     FM192200 31010KT P6SM SCT035
     FM200000 33006KT P6SM SCT250
     FM201400 01007KT P6SM BKN020=



000
FTUS41 KBOX 192102 AAA
TAFBOS
TAF AMD
KBOS 192102Z 1921/2024 30010KT P6SM BKN035
     FM192200 31010KT P6SM SCT035
     FM200000 33006KT P6SM SCT250
     FM201400 01007KT P6SM BKN020=



000
FTUS41 KBOX 191722
TAFBOS
TAF
KBOS 191722Z 1918/2024 31010KT P6SM BKN035
     FM192100 32010KT P6SM SCT035
     FM200000 33006KT P6SM SCT035
     FM201400 01007KT P6SM BKN020=



000
FTUS41 KBOX 191722
TAFPVD
TAF
KPVD 191722Z 1918/2018 32010KT P6SM OVC035
     FM192300 33006KT P6SM BKN025
     FM200300 34004KT P6SM SCT250
     FM201200 36004KT P6SM BKN020=



000
FTUS41 KBOX 191722
TAFACK
TAF
KACK 191722Z 1918/2018 32012KT P6SM BKN025
     FM192300 34008KT P6SM BKN025
     FM200300 35008KT P6SM SCT250
     FM201000 01008KT P6SM BKN025
     FM201200 02007KT P6SM BKN020=



000
FTUS41 KBOX 191722
TAFORH
TAF
KORH 191722Z 1918/2018 32009KT P6SM OVC025
     FM200300 33006KT P6SM SCT250=



000
FTUS41 KBOX 191722
TAFBDL
TAF
KBDL 191722Z 1918/2024 33010KT P6SM OVC035
     FM200000 33005KT P6SM BKN030
     FM200500 34004KT P6SM SCT250
     FM202100 02004KT P6SM BKN050=



000
FTUS41 KBOX 191722
TAFBAF
TAF
KBAF 191722Z 1918/2018 32013KT P6SM OVC030
     FM192300 34005KT P6SM BKN025
     FM200400 34004KT P6SM SCT200=



000
FTUS41 KBOX 191722
TAFPVD
TAF
KPVD 191722Z 1918/2018 32010KT P6SM OVC035
     FM192300 33006KT P6SM BKN025
     FM200300 34004KT P6SM SCT250
     FM201200 36004KT P6SM BKN020=



000
FTUS41 KBOX 191722
TAFBAF
TAF
KBAF 191722Z 1918/2018 32013KT P6SM OVC030
     FM192300 34005KT P6SM BKN025
     FM200400 34004KT P6SM SCT200=



000
FTUS41 KBOX 191722
TAFBDL
TAF
KBDL 191722Z 1918/2024 33010KT P6SM OVC035
     FM200000 33005KT P6SM BKN030
     FM200500 34004KT P6SM SCT250
     FM202100 02004KT P6SM BKN050=



000
FTUS41 KBOX 191722
TAFACK
TAF
KACK 191722Z 1918/2018 32012KT P6SM BKN025
     FM192300 34008KT P6SM BKN025
     FM200300 35008KT P6SM SCT250
     FM201000 01008KT P6SM BKN025
     FM201200 02007KT P6SM BKN020=



000
FTUS41 KBOX 191722
TAFBOS
TAF
KBOS 191722Z 1918/2024 31010KT P6SM BKN035
     FM192100 32010KT P6SM SCT035
     FM200000 33006KT P6SM SCT035
     FM201400 01007KT P6SM BKN020=



000
FTUS41 KBOX 191722
TAFORH
TAF
KORH 191722Z 1918/2018 32009KT P6SM OVC025
     FM200300 33006KT P6SM SCT250=



000
FTUS41 KBOX 191500 AAB
TAFBOS
TAF AMD
KBOS 191500Z 1915/2018 31011KT P6SM BKN035
     FM191900 33010KT P6SM SCT035
     FM200900 35007KT P6SM BKN020=



000
FTUS41 KBOX 191500 AAB
TAFBOS
TAF AMD
KBOS 191500Z 1915/2018 31011KT P6SM BKN035
     FM191900 33010KT P6SM SCT035
     FM200900 35007KT P6SM BKN020=



000
FTUS41 KBOX 191455 AAA
TAFBDL
TAF AMD
KBDL 191455Z 1915/2018 31012KT P6SM OVC035
     FM200300 33004KT P6SM SCT020 BKN050
     FM200900 VRB03KT P6SM BKN025
     FM201100 VRB03KT P6SM BKN060=



000
FTUS41 KBOX 191455 AAA
TAFBDL
TAF AMD
KBDL 191455Z 1915/2018 31012KT P6SM OVC035
     FM200300 33004KT P6SM SCT020 BKN050
     FM200900 VRB03KT P6SM BKN025
     FM201100 VRB03KT P6SM BKN060=



000
FTUS41 KBOX 191454 AAA
TAFPVD
TAF AMD
KPVD 191454Z 1915/2012 29010KT P6SM BKN040
     FM191800 33011KT P6SM SCT025 BKN040
     FM192300 34006KT P6SM BKN025
     FM200500 35005KT P6SM BKN200
     FM201100 36005KT P6SM BKN020=



000
FTUS41 KBOX 191454 AAA
TAFPVD
TAF AMD
KPVD 191454Z 1915/2012 29010KT P6SM BKN040
     FM191800 33011KT P6SM SCT025 BKN040
     FM192300 34006KT P6SM BKN025
     FM200500 35005KT P6SM BKN200
     FM201100 36005KT P6SM BKN020=



000
FTUS41 KBOX 191205 AAA
TAFBOS
TAF AMD
KBOS 191205Z 1912/2018 30011KT P6SM BKN050
     FM191700 31012KT P6SM SCT025 BKN050
     FM192000 33008KT P6SM BKN200
     FM200900 35007KT P6SM BKN020=



000
FTUS41 KBOX 191205 AAA
TAFBOS
TAF AMD
KBOS 191205Z 1912/2018 30011KT P6SM BKN050
     FM191700 31012KT P6SM SCT025 BKN050
     FM192000 33008KT P6SM BKN200
     FM200900 35007KT P6SM BKN020=



000
FTUS41 KBOX 191120
TAFBOS
TAF
KBOS 191120Z 1912/2018 30009KT P6SM BKN050
     FM191700 31012KT P6SM SCT025 BKN050
     FM192000 33008KT P6SM BKN200
     FM200900 35007KT P6SM BKN020=



000
FTUS41 KBOX 191120
TAFBDL
TAF
KBDL 191120Z 1912/2018 30012KT P6SM OVC035
     FM200300 33004KT P6SM SCT020 BKN050
     FM200900 VRB03KT P6SM BKN025
     FM201100 VRB03KT P6SM BKN060=



000
FTUS41 KBOX 191120
TAFPVD
TAF
KPVD 191120Z 1912/2012 29009KT P6SM SCT050
     FM191600 32011KT P6SM SCT250
     FM191800 33011KT P6SM SCT025 BKN040
     FM192300 34006KT P6SM BKN025
     FM200500 35005KT P6SM BKN200
     FM201100 36005KT P6SM BKN020=



000
FTUS41 KBOX 191120
TAFBOS
TAF
KBOS 191120Z 1912/2018 30009KT P6SM BKN050
     FM191700 31012KT P6SM SCT025 BKN050
     FM192000 33008KT P6SM BKN200
     FM200900 35007KT P6SM BKN020=



000
FTUS41 KBOX 191120
TAFACK
TAF
KACK 191120Z 1912/2012 31011KT P6SM BKN040
     FM192100 33008KT P6SM BKN025
     FM200800 36007KT P6SM BKN010=



000
FTUS41 KBOX 191120
TAFBAF
TAF
KBAF 191120Z 1912/2012 33012KT P6SM OVC050
     FM191400 33012KT P6SM SCT025 BKN050
     FM200800 VRB03KT P6SM BKN025
     FM201000 VRB03KT P6SM BKN150=



000
FTUS41 KBOX 191120
TAFORH
TAF
KORH 191120Z 1912/2012 30012KT P6SM SCT025 OVC040
     FM191500 31012KT P6SM SCT025 BKN250
     FM191800 31012KT P6SM BKN035
     FM200000 33005KT P6SM BKN025
     FM200400 32006KT P6SM BKN060=



000
FTUS41 KBOX 191120
TAFPVD
TAF
KPVD 191120Z 1912/2012 29009KT P6SM SCT050
     FM191600 32011KT P6SM SCT250
     FM191800 33011KT P6SM SCT025 BKN040
     FM192300 34006KT P6SM BKN025
     FM200500 35005KT P6SM BKN200
     FM201100 36005KT P6SM BKN020=



000
FTUS41 KBOX 191120
TAFORH
TAF
KORH 191120Z 1912/2012 30012KT P6SM SCT025 OVC040
     FM191500 31012KT P6SM SCT025 BKN250
     FM191800 31012KT P6SM BKN035
     FM200000 33005KT P6SM BKN025
     FM200400 32006KT P6SM BKN060=



000
FTUS41 KBOX 191120
TAFACK
TAF
KACK 191120Z 1912/2012 31011KT P6SM BKN040
     FM192100 33008KT P6SM BKN025
     FM200800 36007KT P6SM BKN010=



000
FTUS41 KBOX 191120
TAFBAF
TAF
KBAF 191120Z 1912/2012 33012KT P6SM OVC050
     FM191400 33012KT P6SM SCT025 BKN050
     FM200800 VRB03KT P6SM BKN025
     FM201000 VRB03KT P6SM BKN150=



000
FTUS41 KBOX 190920 AAA
TAFPVD
TAF AMD
KPVD 190920Z 1909/2006 30007KT P6SM BKN040
     FM191400 33009KT P6SM BKN040
     FM200100 34005KT P6SM SCT050
     FM200400 34004KT P6SM BKN250=



000
FTUS41 KBOX 190920 AAA
TAFPVD
TAF AMD
KPVD 190920Z 1909/2006 30007KT P6SM BKN040
     FM191400 33009KT P6SM BKN040
     FM200100 34005KT P6SM SCT050
     FM200400 34004KT P6SM BKN250=



000
FTUS41 KBOX 190920 AAA
TAFPVD
TAF AMD
KPVD 190920Z 1909/2006 30007KT P6SM BKN040
     FM191400 33009KT P6SM BKN040
     FM200100 34005KT P6SM SCT050
     FM200400 34004KT P6SM BKN250=



000
FTUS41 KBOX 190919 AAA
TAFBAF
TAF AMD
KBAF 190919Z 1909/2006 33010KT P6SM BKN035
     FM200000 34005KT P6SM BKN035
     FM200300 34004KT P6SM BKN040=



000
FTUS41 KBOX 190919 AAA
TAFBAF
TAF AMD
KBAF 190919Z 1909/2006 33010KT P6SM BKN035
     FM200000 34005KT P6SM BKN035
     FM200300 34004KT P6SM BKN040=



000
FTUS41 KBOX 190919 AAA
TAFBAF
TAF AMD
KBAF 190919Z 1909/2006 33010KT P6SM BKN035
     FM200000 34005KT P6SM BKN035
     FM200300 34004KT P6SM BKN040=



000
FTUS41 KBOX 190919 AAA
TAFBAF
TAF AMD
KBAF 190919Z 1909/2006 33010KT P6SM BKN035
     FM200000 34005KT P6SM BKN035
     FM200300 34004KT P6SM BKN040=



000
FTUS41 KBOX 190918 AAA
TAFBDL
TAF AMD
KBDL 190918Z 1909/2012 32010KT P6SM BKN035
     FM200000 33005KT P6SM BKN035
     FM200500 35004KT P6SM BKN200=



000
FTUS41 KBOX 190918 AAA
TAFBDL
TAF AMD
KBDL 190918Z 1909/2012 32010KT P6SM BKN035
     FM200000 33005KT P6SM BKN035
     FM200500 35004KT P6SM BKN200=



000
FTUS41 KBOX 190917 AAA
TAFBOS
TAF AMD
KBOS 190917Z 1909/2012 30010KT P6SM BKN035
     FM191400 32010KT P6SM BKN050
     FM191800 33010KT P6SM SCT050
     FM200500 34007KT P6SM BKN250
     FM201000 35007KT P6SM BKN020=



000
FTUS41 KBOX 190917 AAA
TAFBOS
TAF AMD
KBOS 190917Z 1909/2012 30010KT P6SM BKN035
     FM191400 32010KT P6SM BKN050
     FM191800 33010KT P6SM SCT050
     FM200500 34007KT P6SM BKN250
     FM201000 35007KT P6SM BKN020=



000
FTUS41 KBOX 190536
TAFBDL
TAF
KBDL 190536Z 1906/2012 31007KT P6SM OVC025
     FM191200 31010KT P6SM BKN035
     FM200100 33005KT P6SM BKN035
     FM200500 35004KT P6SM BKN200=



000
FTUS41 KBOX 190536
TAFPVD
TAF
KPVD 190536Z 1906/2006 29005KT P6SM BKN030
     FM190900 31006KT P6SM BKN050
     FM200100 34005KT P6SM SCT050
     FM200400 34004KT P6SM BKN250=



000
FTUS41 KBOX 190536
TAFACK
TAF
KACK 190536Z 1906/2006 30011KT P6SM BKN050
     FM192200 34008KT P6SM BKN050=



000
FTUS41 KBOX 190536
TAFBOS
TAF
KBOS 190536Z 1906/2012 30010KT P6SM SCT030 BKN045
     FM200500 34007KT P6SM BKN250
     FM201000 35007KT P6SM BKN020=



000
FTUS41 KBOX 190536
TAFBAF
TAF
KBAF 190536Z 1906/2006 32009KT P6SM OVC025
     FM191200 33007KT P6SM BKN035
     FM200000 34005KT P6SM BKN035
     FM200300 34004KT P6SM BKN040=



000
FTUS41 KBOX 190536
TAFORH
TAF
KORH 190536Z 1906/2006 28008KT P6SM OVC015
     FM190900 30011KT P6SM BKN025
     FM200000 33005KT P6SM BKN025
     FM200400 32006KT P6SM BKN250=



000
FTUS41 KBOX 190536
TAFBOS
TAF
KBOS 190536Z 1906/2012 30010KT P6SM SCT030 BKN045
     FM200500 34007KT P6SM BKN250
     FM201000 35007KT P6SM BKN020=



000
FTUS41 KBOX 190536
TAFACK
TAF
KACK 190536Z 1906/2006 30011KT P6SM BKN050
     FM192200 34008KT P6SM BKN050=



000
FTUS41 KBOX 190536
TAFPVD
TAF
KPVD 190536Z 1906/2006 29005KT P6SM BKN030
     FM190900 31006KT P6SM BKN050
     FM200100 34005KT P6SM SCT050
     FM200400 34004KT P6SM BKN250=



000
FTUS41 KBOX 190536
TAFBDL
TAF
KBDL 190536Z 1906/2012 31007KT P6SM OVC025
     FM191200 31010KT P6SM BKN035
     FM200100 33005KT P6SM BKN035
     FM200500 35004KT P6SM BKN200=



000
FTUS41 KBOX 190536
TAFORH
TAF
KORH 190536Z 1906/2006 28008KT P6SM OVC015
     FM190900 30011KT P6SM BKN025
     FM200000 33005KT P6SM BKN025
     FM200400 32006KT P6SM BKN250=



000
FTUS41 KBOX 190536
TAFBAF
TAF
KBAF 190536Z 1906/2006 32009KT P6SM OVC025
     FM191200 33007KT P6SM BKN035
     FM200000 34005KT P6SM BKN035
     FM200300 34004KT P6SM BKN040=



000
FTUS41 KBOX 190326 AAA
TAFORH
TAF AMD
KORH 190326Z 1903/1924 29009KT P6SM BKN020
     FM191200 30010KT P6SM BKN025
     FM191500 31010KT P6SM BKN025
     FM191900 32008KT P6SM BKN050=



000
FTUS41 KBOX 190326 AAA
TAFORH
TAF AMD
KORH 190326Z 1903/1924 29009KT P6SM BKN020
     FM191200 30010KT P6SM BKN025
     FM191500 31010KT P6SM BKN025
     FM191900 32008KT P6SM BKN050=



000
FTUS41 KBOX 190324 AAA
TAFBDL
TAF AMD
KBDL 190324Z 1903/2006 32008KT P6SM BKN025
     FM191200 31006KT P6SM SCT100
     FM191500 33009KT P6SM BKN025
     FM191600 33009KT P6SM BKN050
     FM200000 33005KT P6SM BKN050=



000
FTUS41 KBOX 182342
TAFBOS
TAF
KBOS 182342Z 1900/2006 29011KT P6SM SCT040
     FM190800 30010G18KT P6SM SCT150
     FM191400 31010KT P6SM SCT050
     FM191500 32010KT P6SM BKN050
     FM200200 34006KT P6SM BKN050=



000
FTUS41 KBOX 182342
TAFORH
TAF
KORH 182342Z 1900/1924 29010KT P6SM OVC025
     FM190300 29010KT P6SM BKN040
     FM190500 29009KT P6SM SCT080
     FM191500 31010KT P6SM BKN025
     FM191900 32008KT P6SM BKN050=



000
FTUS41 KBOX 182342
TAFPVD
TAF
KPVD 182342Z 1900/1924 28010KT P6SM BKN035
     FM190500 30008KT P6SM SCT080
     FM191600 33009KT P6SM BKN050=



000
FTUS41 KBOX 182342
TAFBAF
TAF
KBAF 182342Z 1900/1924 30012KT P6SM OVC030
     FM190600 32006KT P6SM SCT080
     FM191400 33008KT P6SM BKN050=



000
FTUS41 KBOX 182342
TAFBDL
TAF
KBDL 182342Z 1900/2006 30011KT P6SM BKN035
     FM190600 31006KT P6SM SCT100
     FM191500 33009KT P6SM BKN025
     FM191600 33009KT P6SM BKN050
     FM200000 33005KT P6SM BKN050=



000
FTUS41 KBOX 182342
TAFACK
TAF
KACK 182342Z 1900/1924 29012KT P6SM OVC035
     FM190900 31011KT P6SM SCT150
     FM191400 32012KT P6SM BKN050
     FM192100 33008KT P6SM BKN025
     FM192300 34008KT P6SM BKN050=



000
FTUS41 KBOX 182342
TAFBDL
TAF
KBDL 182342Z 1900/2006 30011KT P6SM BKN035
     FM190600 31006KT P6SM SCT100
     FM191500 33009KT P6SM BKN025
     FM191600 33009KT P6SM BKN050
     FM200000 33005KT P6SM BKN050=



000
FTUS41 KBOX 182342
TAFPVD
TAF
KPVD 182342Z 1900/1924 28010KT P6SM BKN035
     FM190500 30008KT P6SM SCT080
     FM191600 33009KT P6SM BKN050=



000
FTUS41 KBOX 182342
TAFACK
TAF
KACK 182342Z 1900/1924 29012KT P6SM OVC035
     FM190900 31011KT P6SM SCT150
     FM191400 32012KT P6SM BKN050
     FM192100 33008KT P6SM BKN025
     FM192300 34008KT P6SM BKN050=



000
FTUS41 KBOX 182342
TAFORH
TAF
KORH 182342Z 1900/1924 29010KT P6SM OVC025
     FM190300 29010KT P6SM BKN040
     FM190500 29009KT P6SM SCT080
     FM191500 31010KT P6SM BKN025
     FM191900 32008KT P6SM BKN050=



000
FTUS41 KBOX 182342
TAFBOS
TAF
KBOS 182342Z 1900/2006 29011KT P6SM SCT040
     FM190800 30010G18KT P6SM SCT150
     FM191400 31010KT P6SM SCT050
     FM191500 32010KT P6SM BKN050
     FM200200 34006KT P6SM BKN050=



000
FTUS41 KBOX 182342
TAFBAF
TAF
KBAF 182342Z 1900/1924 30012KT P6SM OVC030
     FM190600 32006KT P6SM SCT080
     FM191400 33008KT P6SM BKN050=



000
FTUS41 KBOX 182104 AAA
TAFPVD
TAF AMD
KPVD 182104Z 1821/1918 29011G19KT P6SM BKN035
     FM182300 29010KT P6SM SCT035
     FM190300 30008KT P6SM SCT250
     FM191500 32009KT P6SM BKN050=



000
FTUS41 KBOX 182103 AAA
TAFBAF
TAF AMD
KBAF 182103Z 1821/1918 31012KT P6SM BKN030
     FM190000 31008KT P6SM SCT025
     FM190500 32006KT P6SM SCT250
     FM190900 32007KT P6SM SCT030
     FM191400 33009KT P6SM BKN050=



000
FTUS41 KBOX 182103 AAA
TAFBAF
TAF AMD
KBAF 182103Z 1821/1918 31012KT P6SM BKN030
     FM190000 31008KT P6SM SCT025
     FM190500 32006KT P6SM SCT250
     FM190900 32007KT P6SM SCT030
     FM191400 33009KT P6SM BKN050=



000
FTUS41 KBOX 182103 AAA
TAFBDL
TAF AMD
KBDL 182103Z 1821/1924 30009KT P6SM BKN030
     FM190000 30007KT P6SM SCT025
     FM190900 31006KT P6SM SCT200
     FM191400 33009KT P6SM BKN050=



000
FTUS41 KBOX 182103 AAA
TAFBDL
TAF AMD
KBDL 182103Z 1821/1924 30009KT P6SM BKN030
     FM190000 30007KT P6SM SCT025
     FM190900 31006KT P6SM SCT200
     FM191400 33009KT P6SM BKN050=



000
FTUS41 KBOX 182102 AAA
TAFBOS
TAF AMD
KBOS 182102Z 1821/1924 29012G20KT P6SM BKN040
     FM182300 29012G20KT P6SM SCT035 BKN070
     FM190300 30011G20KT P6SM SCT250
     FM191500 31010KT P6SM BKN050=



000
FTUS41 KBOX 182102 AAA
TAFBOS
TAF AMD
KBOS 182102Z 1821/1924 29012G20KT P6SM BKN040
     FM182300 29012G20KT P6SM SCT035 BKN070
     FM190300 30011G20KT P6SM SCT250
     FM191500 31010KT P6SM BKN050=



000
FTUS41 KBOX 181723
TAFACK
TAF
KACK 181723Z 1818/1918 28017G26KT P6SM SCT035
     FM182100 29017G26KT P6SM SCT250
     FM190600 31013KT P6SM SCT250
     FM191500 32012KT P6SM BKN050=



000
FTUS41 KBOX 181723
TAFBDL
TAF
KBDL 181723Z 1818/1924 30013G24KT P6SM BKN030
     FM182200 30009KT P6SM BKN030
     FM190000 30007KT P6SM SCT025
     FM190900 31006KT P6SM SCT200
     FM191400 33009KT P6SM BKN050=



000
FTUS41 KBOX 181723
TAFPVD
TAF
KPVD 181723Z 1818/1918 30013G25KT P6SM BKN035
     FM182100 29011G23KT P6SM SCT060
     FM190300 30008KT P6SM SCT250
     FM191500 32009KT P6SM BKN050=



000
FTUS41 KBOX 181723
TAFORH
TAF
KORH 181723Z 1818/1918 29017G25KT P6SM BKN025
     FM190000 29011KT P6SM BKN025
     FM190200 29011KT P6SM SCT025
     FM191500 32010KT P6SM BKN030=



000
FTUS41 KBOX 181723
TAFBAF
TAF
KBAF 181723Z 1818/1918 31014G25KT P6SM BKN030
     FM190000 31008KT P6SM SCT025
     FM190500 32006KT P6SM SCT250
     FM190900 32007KT P6SM SCT030
     FM191400 33009KT P6SM BKN050=



000
FTUS41 KBOX 181723
TAFBOS
TAF
KBOS 181723Z 1818/1924 29017G25KT P6SM BKN035
     FM182100 29015G25KT P6SM SCT035 BKN070
     FM190300 30011G20KT P6SM SCT250
     FM191500 31010KT P6SM BKN050=



000
FTUS41 KBOX 181723
TAFBDL
TAF
KBDL 181723Z 1818/1924 30013G24KT P6SM BKN030
     FM182200 30009KT P6SM BKN030
     FM190000 30007KT P6SM SCT025
     FM190900 31006KT P6SM SCT200
     FM191400 33009KT P6SM BKN050=



000
FTUS41 KBOX 181723
TAFPVD
TAF
KPVD 181723Z 1818/1918 30013G25KT P6SM BKN035
     FM182100 29011G23KT P6SM SCT060
     FM190300 30008KT P6SM SCT250
     FM191500 32009KT P6SM BKN050=



000
FTUS41 KBOX 181723
TAFBAF
TAF
KBAF 181723Z 1818/1918 31014G25KT P6SM BKN030
     FM190000 31008KT P6SM SCT025
     FM190500 32006KT P6SM SCT250
     FM190900 32007KT P6SM SCT030
     FM191400 33009KT P6SM BKN050=



000
FTUS41 KBOX 181723
TAFBOS
TAF
KBOS 181723Z 1818/1924 29017G25KT P6SM BKN035
     FM182100 29015G25KT P6SM SCT035 BKN070
     FM190300 30011G20KT P6SM SCT250
     FM191500 31010KT P6SM BKN050=



000
FTUS41 KBOX 181723
TAFACK
TAF
KACK 181723Z 1818/1918 28017G26KT P6SM SCT035
     FM182100 29017G26KT P6SM SCT250
     FM190600 31013KT P6SM SCT250
     FM191500 32012KT P6SM BKN050=



000
FTUS41 KBOX 181723
TAFORH
TAF
KORH 181723Z 1818/1918 29017G25KT P6SM BKN025
     FM190000 29011KT P6SM BKN025
     FM190200 29011KT P6SM SCT025
     FM191500 32010KT P6SM BKN030=



000
FTUS41 KBOX 181517 AAA
TAFPVD
TAF AMD
KPVD 181517Z 1815/1912 30014G25KT P6SM FEW035 SCT070
     FM182300 30009KT P6SM SCT025=



000
FTUS41 KBOX 181517 AAA
TAFPVD
TAF AMD
KPVD 181517Z 1815/1912 30014G25KT P6SM FEW035 SCT070
     FM182300 30009KT P6SM SCT025=



000
FTUS41 KBOX 181515 AAA
TAFBDL
TAF AMD
KBDL 181515Z 1815/1918 31015G25KT P6SM BKN035
     FM182300 30008KT P6SM SCT025=



000
FTUS41 KBOX 181515 AAA
TAFBDL
TAF AMD
KBDL 181515Z 1815/1918 31015G25KT P6SM BKN035
     FM182300 30008KT P6SM SCT025=



000
FTUS41 KBOX 181513 AAA
TAFBOS
TAF AMD
KBOS 181513Z 1815/1918 29016G28KT P6SM SCT050 BKN120
     FM181900 29014G26KT P6SM SCT060
     FM190000 30011G22KT P6SM BKN025
     FM190200 30011G21KT P6SM SCT025
     FM191600 32010KT P6SM SCT200=



000
FTUS41 KBOX 181513 AAA
TAFBOS
TAF AMD
KBOS 181513Z 1815/1918 29016G28KT P6SM SCT050 BKN120
     FM181900 29014G26KT P6SM SCT060
     FM190000 30011G22KT P6SM BKN025
     FM190200 30011G21KT P6SM SCT025
     FM191600 32010KT P6SM SCT200=



000
FTUS41 KBOX 181120
TAFBAF
TAF
KBAF 181120Z 1812/1912 29011KT P6SM SCT025 OVC060
     FM181700 31012G23KT P6SM BKN025
     FM182300 30008KT P6SM SCT025
     FM190500 31006KT P6SM BKN025
     FM191000 32006KT P6SM SCT025=



000
FTUS41 KBOX 181120
TAFBDL
TAF
KBDL 181120Z 1812/1918 28012KT P6SM BKN025 OVC060
     FM181700 30012G23KT P6SM BKN025
     FM182300 30008KT P6SM SCT025=



000
FTUS41 KBOX 181120
TAFPVD
TAF
KPVD 181120Z 1812/1912 28010G24KT P6SM -RASN SCT025 BKN045
     FM181300 29014G25KT P6SM SCT070
     FM182300 30009KT P6SM SCT025=



000
FTUS41 KBOX 181120
TAFBOS
TAF
KBOS 181120Z 1812/1918 27014G24KT P6SM -RASN SCT025 OVC035
     FM181300 27015G25KT P6SM BKN035
     FM181900 29014G26KT P6SM SCT060
     FM190000 30011G22KT P6SM BKN025
     FM190200 30011G21KT P6SM SCT025
     FM191600 32010KT P6SM SCT200=



000
FTUS41 KBOX 181120
TAFORH
TAF
KORH 181120Z 1812/1912 28014G20KT P6SM OVC025
      TEMPO 1812/1813 2SM -SN OVC005
     FM190200 29010KT P6SM SCT025=



000
FTUS41 KBOX 181120
TAFACK
TAF
KACK 181120Z 1812/1912 29018G30KT P6SM SCT025 OVC050
     FM181400 29020G31KT P6SM BKN040
     FM181600 29020G31KT P6SM SCT040
     FM182000 29017G29KT P6SM SCT250
     FM190900 31011G22KT P6SM SCT025=



000
FTUS41 KBOX 181120
TAFORH
TAF
KORH 181120Z 1812/1912 28014G20KT P6SM OVC025
      TEMPO 1812/1813 2SM -SN OVC005
     FM190200 29010KT P6SM SCT025=



000
FTUS41 KBOX 181120
TAFPVD
TAF
KPVD 181120Z 1812/1912 28010G24KT P6SM -RASN SCT025 BKN045
     FM181300 29014G25KT P6SM SCT070
     FM182300 30009KT P6SM SCT025=



000
FTUS41 KBOX 181120
TAFBDL
TAF
KBDL 181120Z 1812/1918 28012KT P6SM BKN025 OVC060
     FM181700 30012G23KT P6SM BKN025
     FM182300 30008KT P6SM SCT025=



000
FTUS41 KBOX 181120
TAFBAF
TAF
KBAF 181120Z 1812/1912 29011KT P6SM SCT025 OVC060
     FM181700 31012G23KT P6SM BKN025
     FM182300 30008KT P6SM SCT025
     FM190500 31006KT P6SM BKN025
     FM191000 32006KT P6SM SCT025=



000
FTUS41 KBOX 181120
TAFBOS
TAF
KBOS 181120Z 1812/1918 27014G24KT P6SM -RASN SCT025 OVC035
     FM181300 27015G25KT P6SM BKN035
     FM181900 29014G26KT P6SM SCT060
     FM190000 30011G22KT P6SM BKN025
     FM190200 30011G21KT P6SM SCT025
     FM191600 32010KT P6SM SCT200=



000
FTUS41 KBOX 181120
TAFACK
TAF
KACK 181120Z 1812/1912 29018G30KT P6SM SCT025 OVC050
     FM181400 29020G31KT P6SM BKN040
     FM181600 29020G31KT P6SM SCT040
     FM182000 29017G29KT P6SM SCT250
     FM190900 31011G22KT P6SM SCT025=



000
FTUS41 KBOX 180912 AAA
TAFPVD
TAF AMD
KPVD 180912Z 1809/1906 28010G16KT P6SM BKN050
     FM181400 29013G25KT P6SM BKN050
     FM181900 30013G24KT P6SM SCT050
     FM182300 30009KT P6SM SCT025=



000
FTUS41 KBOX 180912 AAA
TAFPVD
TAF AMD
KPVD 180912Z 1809/1906 28010G16KT P6SM BKN050
     FM181400 29013G25KT P6SM BKN050
     FM181900 30013G24KT P6SM SCT050
     FM182300 30009KT P6SM SCT025=



000
FTUS41 KBOX 180912 AAA
TAFPVD
TAF AMD
KPVD 180912Z 1809/1906 28010G16KT P6SM BKN050
     FM181400 29013G25KT P6SM BKN050
     FM181900 30013G24KT P6SM SCT050
     FM182300 30009KT P6SM SCT025=



000
FTUS41 KBOX 180912 AAA
TAFPVD
TAF AMD
KPVD 180912Z 1809/1906 28010G16KT P6SM BKN050
     FM181400 29013G25KT P6SM BKN050
     FM181900 30013G24KT P6SM SCT050
     FM182300 30009KT P6SM SCT025=



000
FTUS41 KBOX 180911 AAA
TAFBAF
TAF AMD
KBAF 180911Z 1809/1906 30010G20KT P6SM SCT030 BKN050
     FM181200 32011G20KT P6SM BKN060
     FM181700 31013G23KT P6SM BKN035
     FM182200 30008KT P6SM SCT025
     FM190500 31006KT P6SM SCT025=



000
FTUS41 KBOX 180911 AAA
TAFBAF
TAF AMD
KBAF 180911Z 1809/1906 30010G20KT P6SM SCT030 BKN050
     FM181200 32011G20KT P6SM BKN060
     FM181700 31013G23KT P6SM BKN035
     FM182200 30008KT P6SM SCT025
     FM190500 31006KT P6SM SCT025=



000
FTUS41 KBOX 180911 AAA
TAFBAF
TAF AMD
KBAF 180911Z 1809/1906 30010G20KT P6SM SCT030 BKN050
     FM181200 32011G20KT P6SM BKN060
     FM181700 31013G23KT P6SM BKN035
     FM182200 30008KT P6SM SCT025
     FM190500 31006KT P6SM SCT025=



000
FTUS41 KBOX 180909 AAA
TAFBOS
TAF AMD
KBOS 180909Z 1809/1912 28011G21KT P6SM BKN050
      TEMPO 1810/1812 -SHRASN
     FM181300 29016G26KT P6SM BKN040
     FM182000 30013G25KT P6SM BKN035
     FM190000 30011G22KT P6SM BKN035
     FM190200 30011G21KT P6SM SCT025=



000
FTUS41 KBOX 180909 AAA
TAFBOS
TAF AMD
KBOS 180909Z 1809/1912 28011G21KT P6SM BKN050
      TEMPO 1810/1812 -SHRASN
     FM181300 29016G26KT P6SM BKN040
     FM182000 30013G25KT P6SM BKN035
     FM190000 30011G22KT P6SM BKN035
     FM190200 30011G21KT P6SM SCT025=



000
FTUS41 KBOX 180909 AAA
TAFBOS
TAF AMD
KBOS 180909Z 1809/1912 28011G21KT P6SM BKN050
      TEMPO 1810/1812 -SHRASN
     FM181300 29016G26KT P6SM BKN040
     FM182000 30013G25KT P6SM BKN035
     FM190000 30011G22KT P6SM BKN035
     FM190200 30011G21KT P6SM SCT025=



000
FTUS41 KBOX 180909 AAA
TAFBOS
TAF AMD
KBOS 180909Z 1809/1912 28011G21KT P6SM BKN050
      TEMPO 1810/1812 -SHRASN
     FM181300 29016G26KT P6SM BKN040
     FM182000 30013G25KT P6SM BKN035
     FM190000 30011G22KT P6SM BKN035
     FM190200 30011G21KT P6SM SCT025=



000
FTUS41 KBOX 180531
TAFPVD
TAF
KPVD 180531Z 1806/1906 28009KT P6SM BKN050
     FM181400 29013G25KT P6SM BKN050
     FM181900 30013G24KT P6SM SCT050
     FM182300 30009KT P6SM SCT025=



000
FTUS41 KBOX 180531
TAFBDL
TAF
KBDL 180531Z 1806/1912 30009KT P6SM BKN035
     FM181100 30010G19KT P6SM BKN040
     FM181700 30013G23KT P6SM BKN040
     FM182200 30009KT P6SM SCT025
     FM190800 31005KT P6SM SCT025=



000
FTUS41 KBOX 180531
TAFBAF
TAF
KBAF 180531Z 1806/1906 30009KT P6SM BKN050
     FM181200 32011G20KT P6SM BKN060
     FM181700 31013G23KT P6SM BKN035
     FM182200 30008KT P6SM SCT025
     FM190500 31006KT P6SM SCT025=



000
FTUS41 KBOX 180531
TAFBOS
TAF
KBOS 180531Z 1806/1912 28013G21KT P6SM BKN050
     FM180800 28013G22KT P6SM BKN040
     FM181300 29016G26KT P6SM BKN040
     FM182000 30013G25KT P6SM BKN035
     FM190000 30011G22KT P6SM BKN035
     FM190200 30011G21KT P6SM SCT025=



000
FTUS41 KBOX 180531
TAFORH
TAF
KORH 180531Z 1806/1906 28011G21KT P6SM BKN040
     FM181400 29015G27KT P6SM BKN035
     FM190200 29010KT P6SM SCT025=



000
FTUS41 KBOX 180531
TAFACK
TAF
KACK 180531Z 1806/1906 28012G20KT P6SM BKN040
     FM181400 28017G29KT P6SM BKN040
     FM181800 29017G29KT P6SM SCT060
     FM190500 31013G23KT P6SM SCT250=



000
FTUS41 KBOX 180531
TAFACK
TAF
KACK 180531Z 1806/1906 28012G20KT P6SM BKN040
     FM181400 28017G29KT P6SM BKN040
     FM181800 29017G29KT P6SM SCT060
     FM190500 31013G23KT P6SM SCT250=



000
FTUS41 KBOX 180531
TAFBAF
TAF
KBAF 180531Z 1806/1906 30009KT P6SM BKN050
     FM181200 32011G20KT P6SM BKN060
     FM181700 31013G23KT P6SM BKN035
     FM182200 30008KT P6SM SCT025
     FM190500 31006KT P6SM SCT025=



000
FTUS41 KBOX 180531
TAFBDL
TAF
KBDL 180531Z 1806/1912 30009KT P6SM BKN035
     FM181100 30010G19KT P6SM BKN040
     FM181700 30013G23KT P6SM BKN040
     FM182200 30009KT P6SM SCT025
     FM190800 31005KT P6SM SCT025=



000
FTUS41 KBOX 180531
TAFPVD
TAF
KPVD 180531Z 1806/1906 28009KT P6SM BKN050
     FM181400 29013G25KT P6SM BKN050
     FM181900 30013G24KT P6SM SCT050
     FM182300 30009KT P6SM SCT025=



000
FTUS41 KBOX 180531
TAFBOS
TAF
KBOS 180531Z 1806/1912 28013G21KT P6SM BKN050
     FM180800 28013G22KT P6SM BKN040
     FM181300 29016G26KT P6SM BKN040
     FM182000 30013G25KT P6SM BKN035
     FM190000 30011G22KT P6SM BKN035
     FM190200 30011G21KT P6SM SCT025=



000
FTUS41 KBOX 180531
TAFORH
TAF
KORH 180531Z 1806/1906 28011G21KT P6SM BKN040
     FM181400 29015G27KT P6SM BKN035
     FM190200 29010KT P6SM SCT025=



000
FTUS41 KBOX 172339
TAFBDL
TAF
KBDL 172339Z 1800/1906 30009KT P6SM SCT025 BKN040
     FM180900 28010G22KT P6SM BKN025
     FM181100 28010G20KT P6SM BKN045
     FM182100 31011G23KT P6SM SCT050
     FM182300 31009KT P6SM SCT050=



000
FTUS41 KBOX 172339
TAFORH
TAF
KORH 172339Z 1800/1824 28015G22KT P6SM OVC080
     FM180300 28010KT P6SM OVC020
     FM180500 28011KT P6SM OVC025
     FM181200 28012KT P6SM OVC035
     FM181500 29012G25KT P6SM BKN035=



000
FTUS41 KBOX 172339
TAFACK
TAF
KACK 172339Z 1800/1824 29010KT P6SM FEW250
     FM180300 28015G23KT P6SM BKN050
     FM181700 28018G30KT P6SM SCT070=



000
FTUS41 KBOX 172339
TAFBAF
TAF
KBAF 172339Z 1800/1824 31007KT P6SM SCT025 OVC080
     FM180300 30009KT P6SM OVC025
     FM180700 29008KT P6SM OVC020
     FM181200 29009KT P6SM BKN025
     FM181500 30011G25KT P6SM BKN040
     FM182200 31009KT P6SM SCT050=



000
FTUS41 KBOX 172339
TAFBOS
TAF
KBOS 172339Z 1800/1906 29011G20KT P6SM SCT025 BKN040
     FM180300 29012G22KT P6SM OVC040
     FM190000 29010G24KT P6SM SCT050
     FM190500 30009KT P6SM SCT050=



000
FTUS41 KBOX 172339
TAFPVD
TAF
KPVD 172339Z 1800/1824 29009KT P6SM SCT025 BKN035 OVC120
     FM180900 28011G24KT P6SM BKN050
     FM181600 29012G26KT P6SM SCT050=



000
FTUS41 KBOX 172339
TAFBAF
TAF
KBAF 172339Z 1800/1824 31007KT P6SM SCT025 OVC080
     FM180300 30009KT P6SM OVC025
     FM180700 29008KT P6SM OVC020
     FM181200 29009KT P6SM BKN025
     FM181500 30011G25KT P6SM BKN040
     FM182200 31009KT P6SM SCT050=



000
FTUS41 KBOX 172339
TAFBOS
TAF
KBOS 172339Z 1800/1906 29011G20KT P6SM SCT025 BKN040
     FM180300 29012G22KT P6SM OVC040
     FM190000 29010G24KT P6SM SCT050
     FM190500 30009KT P6SM SCT050=



000
FTUS41 KBOX 172339
TAFPVD
TAF
KPVD 172339Z 1800/1824 29009KT P6SM SCT025 BKN035 OVC120
     FM180900 28011G24KT P6SM BKN050
     FM181600 29012G26KT P6SM SCT050=



000
FTUS41 KBOX 172339
TAFORH
TAF
KORH 172339Z 1800/1824 28015G22KT P6SM OVC080
     FM180300 28010KT P6SM OVC020
     FM180500 28011KT P6SM OVC025
     FM181200 28012KT P6SM OVC035
     FM181500 29012G25KT P6SM BKN035=



000
FTUS41 KBOX 172339
TAFBDL
TAF
KBDL 172339Z 1800/1906 30009KT P6SM SCT025 BKN040
     FM180900 28010G22KT P6SM BKN025
     FM181100 28010G20KT P6SM BKN045
     FM182100 31011G23KT P6SM SCT050
     FM182300 31009KT P6SM SCT050=



000
FTUS41 KBOX 172339
TAFACK
TAF
KACK 172339Z 1800/1824 29010KT P6SM FEW250
     FM180300 28015G23KT P6SM BKN050
     FM181700 28018G30KT P6SM SCT070=



000
FTUS41 KBOX 172216 AAC
TAFBOS
TAF AMD
KBOS 172216Z 1722/1824 29014G20KT P6SM BKN035
     FM180000 30011KT P6SM BKN025
     FM180200 28010G22KT P6SM BKN035
     FM180800 28011G24KT P6SM OVC045=



000
FTUS41 KBOX 172216 AAC
TAFBOS
TAF AMD
KBOS 172216Z 1722/1824 29014G20KT P6SM BKN035
     FM180000 30011KT P6SM BKN025
     FM180200 28010G22KT P6SM BKN035
     FM180800 28011G24KT P6SM OVC045=



000
FTUS41 KBOX 172051 AAA
TAFACK
TAF AMD
KACK 172051Z 1721/1818 28014G22KT P6SM OVC007
     FM172300 28014G26KT P6SM BKN025
     FM180400 29015G25KT P6SM BKN035
     FM181700 28018G30KT P6SM SCT070=



000
FTUS41 KBOX 172051 AAA
TAFACK
TAF AMD
KACK 172051Z 1721/1818 28014G22KT P6SM OVC007
     FM172300 28014G26KT P6SM BKN025
     FM180400 29015G25KT P6SM BKN035
     FM181700 28018G30KT P6SM SCT070=



000
FTUS41 KBOX 172014 AAA
TAFBDL
TAF AMD
KBDL 172014Z 1720/1824 30010KT P6SM BKN025 OVC045
     FM172300 29007KT P6SM BKN035
     FM180900 28010G22KT P6SM BKN025
     FM181200 28012G21KT P6SM BKN050
     FM182300 31009KT P6SM SCT050=



000
FTUS41 KBOX 172014 AAA
TAFBDL
TAF AMD
KBDL 172014Z 1720/1824 30010KT P6SM BKN025 OVC045
     FM172300 29007KT P6SM BKN035
     FM180900 28010G22KT P6SM BKN025
     FM181200 28012G21KT P6SM BKN050
     FM182300 31009KT P6SM SCT050=



000
FTUS41 KBOX 172013 AAB
TAFBOS
TAF AMD
KBOS 172013Z 1720/1824 31011KT P6SM SCT015 BKN035
     FM172300 30011KT P6SM BKN025
     FM180200 28010G22KT P6SM BKN035
     FM180800 28011G24KT P6SM OVC045=



000
FTUS41 KBOX 172013 AAB
TAFBOS
TAF AMD
KBOS 172013Z 1720/1824 31011KT P6SM SCT015 BKN035
     FM172300 30011KT P6SM BKN025
     FM180200 28010G22KT P6SM BKN035
     FM180800 28011G24KT P6SM OVC045=



000
FTUS41 KBOX 171859 AAA
TAFORH
TAF AMD
KORH 171859Z 1719/1818 29012KT P6SM BKN015
     FM180300 28010KT P6SM OVC025
     FM181200 28012KT P6SM BKN035
     FM181500 29012G25KT P6SM BKN035=



000
FTUS41 KBOX 171859 AAA
TAFORH
TAF AMD
KORH 171859Z 1719/1818 29012KT P6SM BKN015
     FM180300 28010KT P6SM OVC025
     FM181200 28012KT P6SM BKN035
     FM181500 29012G25KT P6SM BKN035=



000
FTUS41 KBOX 171858 AAA
TAFPVD
TAF AMD
KPVD 171858Z 1719/1818 31011KT P6SM BKN025
     FM180600 28010G23KT P6SM BKN050
     FM181600 29012G26KT P6SM SCT050=



000
FTUS41 KBOX 171858 AAA
TAFPVD
TAF AMD
KPVD 171858Z 1719/1818 31011KT P6SM BKN025
     FM180600 28010G23KT P6SM BKN050
     FM181600 29012G26KT P6SM SCT050=



000
FTUS41 KBOX 171857 AAA
TAFBOS
TAF AMD
KBOS 171857Z 1719/1824 31011KT P6SM BKN012
     FM180200 28010G22KT P6SM BKN035
     FM180800 28011G24KT P6SM OVC045=



000
FTUS41 KBOX 171857 AAA
TAFBOS
TAF AMD
KBOS 171857Z 1719/1824 31011KT P6SM BKN012
     FM180200 28010G22KT P6SM BKN035
     FM180800 28011G24KT P6SM OVC045=



000
FTUS41 KBOX 171721
TAFBOS
TAF
KBOS 171721Z 1718/1824 31010G18KT P6SM BKN006 OVC015
     FM171900 31011G21KT P6SM BKN025
     FM180200 28010G22KT P6SM BKN035
     FM180800 28011G24KT P6SM OVC045=



000
FTUS41 KBOX 171721
TAFBDL
TAF
KBDL 171721Z 1718/1824 31007KT P6SM SCT025 BKN045
     FM172200 29007KT P6SM BKN035
     FM180900 28010G22KT P6SM BKN025
     FM181200 28012G21KT P6SM BKN050
     FM182300 31009KT P6SM SCT050=



000
FTUS41 KBOX 171721
TAFBAF
TAF
KBAF 171721Z 1718/1818 33006KT P6SM BKN025
     FM172200 34005KT P6SM BKN035
     FM180900 31009KT P6SM BKN025
     FM181500 34012G25KT P6SM BKN040=



000
FTUS41 KBOX 171721
TAFPVD
TAF
KPVD 171721Z 1718/1818 31011KT P6SM BKN015
     FM172000 30008KT P6SM BKN035
     FM180600 28010G23KT P6SM BKN050
     FM181600 29012G26KT P6SM SCT050=



000
FTUS41 KBOX 171721
TAFACK
TAF
KACK 171721Z 1718/1818 27013G20KT 4SM BR OVC004
     FM171900 28013G21KT P6SM OVC008
     FM172100 28013G24KT P6SM BKN015
     FM172300 28014G26KT P6SM BKN040
     FM181700 28018G30KT P6SM SCT070=



000
FTUS41 KBOX 171721
TAFORH
TAF
KORH 171721Z 1718/1818 28012KT P6SM BKN006
     FM172100 29008KT P6SM BKN015
     FM180300 28010KT P6SM OVC025
     FM181200 28012KT P6SM BKN035
     FM181500 29012G25KT P6SM BKN035=



000
FTUS41 KBOX 171721
TAFBOS
TAF
KBOS 171721Z 1718/1824 31010G18KT P6SM BKN006 OVC015
     FM171900 31011G21KT P6SM BKN025
     FM180200 28010G22KT P6SM BKN035
     FM180800 28011G24KT P6SM OVC045=



000
FTUS41 KBOX 171721
TAFORH
TAF
KORH 171721Z 1718/1818 28012KT P6SM BKN006
     FM172100 29008KT P6SM BKN015
     FM180300 28010KT P6SM OVC025
     FM181200 28012KT P6SM BKN035
     FM181500 29012G25KT P6SM BKN035=



000
FTUS41 KBOX 171721
TAFBAF
TAF
KBAF 171721Z 1718/1818 33006KT P6SM BKN025
     FM172200 34005KT P6SM BKN035
     FM180900 31009KT P6SM BKN025
     FM181500 34012G25KT P6SM BKN040=



000
FTUS41 KBOX 171721
TAFPVD
TAF
KPVD 171721Z 1718/1818 31011KT P6SM BKN015
     FM172000 30008KT P6SM BKN035
     FM180600 28010G23KT P6SM BKN050
     FM181600 29012G26KT P6SM SCT050=



000
FTUS41 KBOX 171721
TAFACK
TAF
KACK 171721Z 1718/1818 27013G20KT 4SM BR OVC004
     FM171900 28013G21KT P6SM OVC008
     FM172100 28013G24KT P6SM BKN015
     FM172300 28014G26KT P6SM BKN040
     FM181700 28018G30KT P6SM SCT070=



000
FTUS41 KBOX 171721
TAFBDL
TAF
KBDL 171721Z 1718/1824 31007KT P6SM SCT025 BKN045
     FM172200 29007KT P6SM BKN035
     FM180900 28010G22KT P6SM BKN025
     FM181200 28012G21KT P6SM BKN050
     FM182300 31009KT P6SM SCT050=



000
FTUS41 KBOX 171553 AAC
TAFORH
TAF AMD
KORH 171553Z 1716/1812 31008KT P6SM SCT008 OVC025
     FM171800 29008KT P6SM BKN025
     FM180300 28012KT P6SM BKN015
     FM180900 28015KT P6SM BKN050=



000
FTUS41 KBOX 171553 AAC
TAFORH
TAF AMD
KORH 171553Z 1716/1812 31008KT P6SM SCT008 OVC025
     FM171800 29008KT P6SM BKN025
     FM180300 28012KT P6SM BKN015
     FM180900 28015KT P6SM BKN050=



000
FTUS41 KBOX 171553 AAC
TAFORH
TAF AMD
KORH 171553Z 1716/1812 31008KT P6SM SCT008 OVC025
     FM171800 29008KT P6SM BKN025
     FM180300 28012KT P6SM BKN015
     FM180900 28015KT P6SM BKN050=



000
FTUS41 KBOX 171553 AAC
TAFORH
TAF AMD
KORH 171553Z 1716/1812 31008KT P6SM SCT008 OVC025
     FM171800 29008KT P6SM BKN025
     FM180300 28012KT P6SM BKN015
     FM180900 28015KT P6SM BKN050=



000
FTUS41 KBOX 171544 AAC
TAFACK
TAF AMD
KACK 171544Z 1716/1812 22010KT 1/4SM FG OVC002
     FM171700 25012KT 4SM BR BKN005 OVC020
     FM172200 28015G28KT P6SM BKN025
     FM180600 28019G29KT P6SM BKN050=



000
FTUS41 KBOX 171544 AAC
TAFACK
TAF AMD
KACK 171544Z 1716/1812 22010KT 1/4SM FG OVC002
     FM171700 25012KT 4SM BR BKN005 OVC020
     FM172200 28015G28KT P6SM BKN025
     FM180600 28019G29KT P6SM BKN050=



000
FTUS41 KBOX 171509 AAB
TAFORH
TAF AMD
KORH 171509Z 1715/1812 31008KT P6SM BKN008 OVC025
     FM171700 29008KT P6SM BKN025
     FM180300 28012KT P6SM BKN015
     FM180900 28015KT P6SM BKN050=



000
FTUS41 KBOX 171509 AAB
TAFORH
TAF AMD
KORH 171509Z 1715/1812 31008KT P6SM BKN008 OVC025
     FM171700 29008KT P6SM BKN025
     FM180300 28012KT P6SM BKN015
     FM180900 28015KT P6SM BKN050=



000
FTUS41 KBOX 171508 AAB
TAFBDL
TAF AMD
KBDL 171508Z 1715/1818 34005KT P6SM SCT015 SCT035
     FM171800 30006KT P6SM BKN045
     FM180000 29008KT P6SM OVC050
     FM180900 28009KT P6SM BKN050
     FM181700 31013G24KT P6SM BKN050=



000
FTUS41 KBOX 171508 AAB
TAFBDL
TAF AMD
KBDL 171508Z 1715/1818 34005KT P6SM SCT015 SCT035
     FM171800 30006KT P6SM BKN045
     FM180000 29008KT P6SM OVC050
     FM180900 28009KT P6SM BKN050
     FM181700 31013G24KT P6SM BKN050=



000
FTUS41 KBOX 171508 AAB
TAFPVD
TAF AMD
KPVD 171508Z 1715/1812 31006KT P6SM OVC006
     FM171700 30008KT P6SM BKN015
     FM171900 29008KT P6SM BKN045
     FM180600 28011G23KT P6SM BKN050=



000
FTUS41 KBOX 171508 AAB
TAFPVD
TAF AMD
KPVD 171508Z 1715/1812 31006KT P6SM OVC006
     FM171700 30008KT P6SM BKN015
     FM171900 29008KT P6SM BKN045
     FM180600 28011G23KT P6SM BKN050=



000
FTUS41 KBOX 171502 AAB
TAFACK
TAF AMD
KACK 171502Z 1715/1812 22008KT P6SM BKN005 OVC045
     FM171700 27012KT P6SM BKN015
     FM180000 28015G28KT P6SM BKN025
     FM180600 28019G29KT P6SM BKN050=



000
FTUS41 KBOX 171502 AAB
TAFACK
TAF AMD
KACK 171502Z 1715/1812 22008KT P6SM BKN005 OVC045
     FM171700 27012KT P6SM BKN015
     FM180000 28015G28KT P6SM BKN025
     FM180600 28019G29KT P6SM BKN050=



000
FTUS41 KBOX 171501 AAB
TAFBOS
TAF AMD
KBOS 171501Z 1715/1818 30011KT P6SM OVC006
     FM171700 30010KT P6SM BKN018
     FM171900 30011KT P6SM BKN025
     FM180300 28013G22KT P6SM OVC025
     FM180600 28014G24KT P6SM OVC050=



000
FTUS41 KBOX 171501 AAB
TAFBOS
TAF AMD
KBOS 171501Z 1715/1818 30011KT P6SM OVC006
     FM171700 30010KT P6SM BKN018
     FM171900 30011KT P6SM BKN025
     FM180300 28013G22KT P6SM OVC025
     FM180600 28014G24KT P6SM OVC050=



000
FTUS41 KBOX 171348 AAA
TAFACK
TAF AMD
KACK 171348Z 1714/1812 22005KT 6SM BR SCT003 BKN035
     FM171700 27012KT P6SM BKN015
     FM180000 28015G28KT P6SM BKN025
     FM180600 28019G29KT P6SM BKN050=



000
FTUS41 KBOX 171348 AAA
TAFACK
TAF AMD
KACK 171348Z 1714/1812 22005KT 6SM BR SCT003 BKN035
     FM171700 27012KT P6SM BKN015
     FM180000 28015G28KT P6SM BKN025
     FM180600 28019G29KT P6SM BKN050=



000
FTUS41 KBOX 171345 AAA
TAFPVD
TAF AMD
KPVD 171345Z 1714/1812 31006KT P6SM OVC006
     FM171700 30008KT P6SM BKN015
     FM172100 29008KT P6SM BKN050
     FM180600 28011G23KT P6SM BKN050=



000
FTUS41 KBOX 171345 AAA
TAFPVD
TAF AMD
KPVD 171345Z 1714/1812 31006KT P6SM OVC006
     FM171700 30008KT P6SM BKN015
     FM172100 29008KT P6SM BKN050
     FM180600 28011G23KT P6SM BKN050=



000
FTUS41 KBOX 171344 AAA
TAFORH
TAF AMD
KORH 171344Z 1714/1812 31007KT 1/2SM FG OVC003
     FM171600 30007KT 3SM BR OVC006
     FM171800 29008KT P6SM BKN025
     FM180300 28012KT P6SM BKN015
     FM180900 28015KT P6SM BKN050=



000
FTUS41 KBOX 171344 AAA
TAFORH
TAF AMD
KORH 171344Z 1714/1812 31007KT 1/2SM FG OVC003
     FM171600 30007KT 3SM BR OVC006
     FM171800 29008KT P6SM BKN025
     FM180300 28012KT P6SM BKN015
     FM180900 28015KT P6SM BKN050=



000
FTUS41 KBOX 171339 AAA
TAFBDL
TAF AMD
KBDL 171339Z 1714/1818 33005KT P6SM SCT008 BKN025
     FM171800 30006KT P6SM BKN045
     FM180000 29008KT P6SM OVC050
     FM180900 28009KT P6SM BKN050
     FM181700 31013G24KT P6SM BKN050=



000
FTUS41 KBOX 171339 AAA
TAFBDL
TAF AMD
KBDL 171339Z 1714/1818 33005KT P6SM SCT008 BKN025
     FM171800 30006KT P6SM BKN045
     FM180000 29008KT P6SM OVC050
     FM180900 28009KT P6SM BKN050
     FM181700 31013G24KT P6SM BKN050=



000
FTUS41 KBOX 171339 AAA
TAFBAF
TAF AMD
KBAF 171339Z 1714/1812 35005KT P6SM SCT015 BKN045
     FM172300 30008KT P6SM BKN015
     FM180000 30008KT P6SM OVC025
     FM180900 29010G20KT P6SM BKN050=



000
FTUS41 KBOX 171339 AAA
TAFBAF
TAF AMD
KBAF 171339Z 1714/1812 35005KT P6SM SCT015 BKN045
     FM172300 30008KT P6SM BKN015
     FM180000 30008KT P6SM OVC025
     FM180900 29010G20KT P6SM BKN050=



000
FTUS41 KBOX 171320 AAA
TAFBOS
TAF AMD
KBOS 171320Z 1713/1818 30010KT 4SM BR OVC006
     FM171530 30010KT P6SM OVC012
     FM171800 30011KT P6SM BKN025
     FM180300 28013G22KT P6SM OVC025
     FM180600 28014G24KT P6SM OVC050=



000
FTUS41 KBOX 171320 AAA
TAFBOS
TAF AMD
KBOS 171320Z 1713/1818 30010KT 4SM BR OVC006
     FM171530 30010KT P6SM OVC012
     FM171800 30011KT P6SM BKN025
     FM180300 28013G22KT P6SM OVC025
     FM180600 28014G24KT P6SM OVC050=



000
FTUS41 KBOX 171120
TAFBDL
TAF
KBDL 171120Z 1712/1818 34004KT P6SM -SHRA OVC010
     FM171400 34004KT P6SM BKN015
     FM171800 30006KT P6SM BKN025
     FM180000 29008KT P6SM OVC050
     FM180900 28009KT P6SM BKN050
     FM181700 31013G24KT P6SM BKN050=



000
FTUS41 KBOX 171120
TAFPVD
TAF
KPVD 171120Z 1712/1812 34005KT 5SM -SHRA BR OVC004
      TEMPO 1712/1714 2SM -SHRA OVC002
     FM171400 31006KT P6SM BKN008
     FM171800 30008KT P6SM BKN015
     FM172100 29008KT P6SM BKN050
     FM180600 28011G23KT P6SM BKN050=



000
FTUS41 KBOX 171120
TAFORH
TAF
KORH 171120Z 1712/1812 33005KT 1SM -SHRA BR OVC002
     FM171300 31006KT 2SM BR OVC008
     FM171500 30007KT P6SM OVC008
     FM171800 29008KT P6SM BKN025
     FM180300 28012KT P6SM BKN015
     FM180900 28015KT P6SM BKN050=



000
FTUS41 KBOX 171120
TAFACK
TAF
KACK 171120Z 1712/1812 17006KT 5SM -SHRA BR SCT015 OVC025
     FM171400 22009KT 3SM BR OVC008
     FM171700 27012KT P6SM BKN008
     FM172100 28013G24KT P6SM BKN008
     FM180000 28015G28KT P6SM BKN025
     FM180600 28019G29KT P6SM BKN050=



000
FTUS41 KBOX 171120
TAFBAF
TAF
KBAF 171120Z 1712/1812 36004KT 5SM -SHRA OVC010
     FM171400 35004KT P6SM BKN015
     FM172300 30008KT P6SM BKN015
     FM180000 30008KT P6SM OVC025
     FM180900 29010G20KT P6SM BKN050=



000
FTUS41 KBOX 171120
TAFBOS
TAF
KBOS 171120Z 1712/1818 01008KT 5SM -SHRA BR SCT003 OVC025
     FM171600 30009KT P6SM OVC025
     FM180300 28013G22KT P6SM OVC025
     FM180600 28014G24KT P6SM OVC050=



000
FTUS41 KBOX 171120
TAFACK
TAF
KACK 171120Z 1712/1812 17006KT 5SM -SHRA BR SCT015 OVC025
     FM171400 22009KT 3SM BR OVC008
     FM171700 27012KT P6SM BKN008
     FM172100 28013G24KT P6SM BKN008
     FM180000 28015G28KT P6SM BKN025
     FM180600 28019G29KT P6SM BKN050=



000
FTUS41 KBOX 171120
TAFORH
TAF
KORH 171120Z 1712/1812 33005KT 1SM -SHRA BR OVC002
     FM171300 31006KT 2SM BR OVC008
     FM171500 30007KT P6SM OVC008
     FM171800 29008KT P6SM BKN025
     FM180300 28012KT P6SM BKN015
     FM180900 28015KT P6SM BKN050=



000
FTUS41 KBOX 171120
TAFBAF
TAF
KBAF 171120Z 1712/1812 36004KT 5SM -SHRA OVC010
     FM171400 35004KT P6SM BKN015
     FM172300 30008KT P6SM BKN015
     FM180000 30008KT P6SM OVC025
     FM180900 29010G20KT P6SM BKN050=



000
FTUS41 KBOX 171120
TAFBDL
TAF
KBDL 171120Z 1712/1818 34004KT P6SM -SHRA OVC010
     FM171400 34004KT P6SM BKN015
     FM171800 30006KT P6SM BKN025
     FM180000 29008KT P6SM OVC050
     FM180900 28009KT P6SM BKN050
     FM181700 31013G24KT P6SM BKN050=



000
FTUS41 KBOX 171120
TAFBOS
TAF
KBOS 171120Z 1712/1818 01008KT 5SM -SHRA BR SCT003 OVC025
     FM171600 30009KT P6SM OVC025
     FM180300 28013G22KT P6SM OVC025
     FM180600 28014G24KT P6SM OVC050=



000
FTUS41 KBOX 171120
TAFPVD
TAF
KPVD 171120Z 1712/1812 34005KT 5SM -SHRA BR OVC004
      TEMPO 1712/1714 2SM -SHRA OVC002
     FM171400 31006KT P6SM BKN008
     FM171800 30008KT P6SM BKN015
     FM172100 29008KT P6SM BKN050
     FM180600 28011G23KT P6SM BKN050=



000
FTUS41 KBOX 170939 AAA
TAFBDL
TAF AMD
KBDL 170939Z 1710/1812 34008KT 4SM -RA BR OVC008
     FM171100 35005KT 3SM BR OVC008
     FM171500 33004KT P6SM BKN015
     FM171800 30006KT P6SM BKN025
     FM172100 30008KT P6SM BKN015
     FM180000 29008KT P6SM OVC050
     FM180300 28009KT P6SM BKN025
     FM180900 28009KT P6SM BKN050=



000
FTUS41 KBOX 170938 AAA
TAFBAF
TAF AMD
KBAF 170938Z 1710/1806 01006KT 4SM RA BR OVC011
     FM171100 35003KT 3SM BR OVC008
     FM171500 34004KT P6SM OVC015
     FM172300 30008KT P6SM OVC015
     FM180000 30008KT P6SM OVC025=



000
FTUS41 KBOX 170938 AAA
TAFBAF
TAF AMD
KBAF 170938Z 1710/1806 01006KT 4SM RA BR OVC011
     FM171100 35003KT 3SM BR OVC008
     FM171500 34004KT P6SM OVC015
     FM172300 30008KT P6SM OVC015
     FM180000 30008KT P6SM OVC025=



000
FTUS41 KBOX 170938 AAA
TAFBAF
TAF AMD
KBAF 170938Z 1710/1806 01006KT 4SM RA BR OVC011
     FM171100 35003KT 3SM BR OVC008
     FM171500 34004KT P6SM OVC015
     FM172300 30008KT P6SM OVC015
     FM180000 30008KT P6SM OVC025=



000
FTUS41 KBOX 170938 AAA
TAFBAF
TAF AMD
KBAF 170938Z 1710/1806 01006KT 4SM RA BR OVC011
     FM171100 35003KT 3SM BR OVC008
     FM171500 34004KT P6SM OVC015
     FM172300 30008KT P6SM OVC015
     FM180000 30008KT P6SM OVC025=



000
FTUS41 KBOX 170937 AAA
TAFPVD
TAF AMD
KPVD 170937Z 1710/1806 35007KT 4SM -SHRA OVC008
     FM171200 34006KT 3SM BR OVC010
     FM171500 31007KT P6SM BKN012
     FM171800 30008KT P6SM BKN015
     FM172100 29008KT P6SM BKN050
     FM180300 28010G20KT P6SM BKN025=



000
FTUS41 KBOX 170937 AAA
TAFPVD
TAF AMD
KPVD 170937Z 1710/1806 35007KT 4SM -SHRA OVC008
     FM171200 34006KT 3SM BR OVC010
     FM171500 31007KT P6SM BKN012
     FM171800 30008KT P6SM BKN015
     FM172100 29008KT P6SM BKN050
     FM180300 28010G20KT P6SM BKN025=



000
FTUS41 KBOX 170934 AAA
TAFBOS
TAF AMD
KBOS 170934Z 1710/1812 03008KT 2SM RA BR OVC004
     FM171200 01007KT 2SM -SHRA BR OVC004
     FM171500 31008KT P6SM OVC015
     FM171800 30009KT P6SM BKN025
     FM180300 28013G22KT P6SM OVC025=



000
FTUS41 KBOX 170934 AAA
TAFBOS
TAF AMD
KBOS 170934Z 1710/1812 03008KT 2SM RA BR OVC004
     FM171200 01007KT 2SM -SHRA BR OVC004
     FM171500 31008KT P6SM OVC015
     FM171800 30009KT P6SM BKN025
     FM180300 28013G22KT P6SM OVC025=



000
FTUS41 KBOX 170539
TAFBAF
TAF
KBAF 170539Z 1706/1806 01004KT 2SM -SHRA BR OVC003
     FM171100 VRB03KT 3SM BR OVC003
     FM171500 34004KT P6SM OVC015
     FM172300 30008KT P6SM OVC015
     FM180000 30008KT P6SM OVC025=



000
FTUS41 KBOX 170539
TAFBDL
TAF
KBDL 170539Z 1706/1812 01004KT 3SM -SHRA BR OVC008
     FM171100 35005KT 1SM BR OVC003
     FM171500 33004KT P6SM BKN015
     FM171800 30006KT P6SM BKN025
     FM172100 30008KT P6SM BKN015
     FM180000 29008KT P6SM OVC050
     FM180300 28009KT P6SM BKN025
     FM180900 28009KT P6SM BKN050=



000
FTUS41 KBOX 170539
TAFBOS
TAF
KBOS 170539Z 1706/1812 02005KT 2SM -SHRA BR OVC003
     FM170900 05006KT 1SM -SHRA BR OVC003
     FM171200 01007KT 1SM -SHRA BR OVC003
     FM171500 31008KT P6SM OVC015
     FM171800 30009KT P6SM BKN025
     FM180300 28013G22KT P6SM OVC025=



000
FTUS41 KBOX 170539
TAFORH
TAF
KORH 170539Z 1706/1806 04005KT 1SM -SHRA BR OVC002
     FM171300 32005KT 2SM BR OVC008
     FM171500 31006KT P6SM OVC008
     FM171800 29008KT P6SM BKN025
     FM180300 28012KT P6SM BKN015=



000
FTUS41 KBOX 170539
TAFACK
TAF
KACK 170539Z 1706/1806 12008KT P6SM OVC030
     FM170800 11007KT 3SM -SHRA BR OVC003
     FM170900 12008KT 3SM SHRA BR OVC003
     FM171400 22010KT 3SM BR OVC008
     FM171600 26012KT P6SM BKN008
     FM171800 28013KT P6SM BKN003
     FM172100 28013G24KT P6SM BKN008=



000
FTUS41 KBOX 170539
TAFPVD
TAF
KPVD 170539Z 1706/1806 02004KT 3SM -SHRA BR OVC003
     FM171200 34006KT 3SM BR OVC008
     FM171500 31007KT P6SM BKN008
     FM171800 30008KT P6SM BKN015
     FM172100 29008KT P6SM BKN050
     FM180300 28010G20KT P6SM BKN025=



000
FTUS41 KBOX 170539
TAFBDL
TAF
KBDL 170539Z 1706/1812 01004KT 3SM -SHRA BR OVC008
     FM171100 35005KT 1SM BR OVC003
     FM171500 33004KT P6SM BKN015
     FM171800 30006KT P6SM BKN025
     FM172100 30008KT P6SM BKN015
     FM180000 29008KT P6SM OVC050
     FM180300 28009KT P6SM BKN025
     FM180900 28009KT P6SM BKN050=



000
FTUS41 KBOX 170539
TAFORH
TAF
KORH 170539Z 1706/1806 04005KT 1SM -SHRA BR OVC002
     FM171300 32005KT 2SM BR OVC008
     FM171500 31006KT P6SM OVC008
     FM171800 29008KT P6SM BKN025
     FM180300 28012KT P6SM BKN015=



000
FTUS41 KBOX 170539
TAFBOS
TAF
KBOS 170539Z 1706/1812 02005KT 2SM -SHRA BR OVC003
     FM170900 05006KT 1SM -SHRA BR OVC003
     FM171200 01007KT 1SM -SHRA BR OVC003
     FM171500 31008KT P6SM OVC015
     FM171800 30009KT P6SM BKN025
     FM180300 28013G22KT P6SM OVC025=



000
FTUS41 KBOX 170539
TAFBAF
TAF
KBAF 170539Z 1706/1806 01004KT 2SM -SHRA BR OVC003
     FM171100 VRB03KT 3SM BR OVC003
     FM171500 34004KT P6SM OVC015
     FM172300 30008KT P6SM OVC015
     FM180000 30008KT P6SM OVC025=



000
FTUS41 KBOX 170539
TAFACK
TAF
KACK 170539Z 1706/1806 12008KT P6SM OVC030
     FM170800 11007KT 3SM -SHRA BR OVC003
     FM170900 12008KT 3SM SHRA BR OVC003
     FM171400 22010KT 3SM BR OVC008
     FM171600 26012KT P6SM BKN008
     FM171800 28013KT P6SM BKN003
     FM172100 28013G24KT P6SM BKN008=



000
FTUS41 KBOX 170539
TAFPVD
TAF
KPVD 170539Z 1706/1806 02004KT 3SM -SHRA BR OVC003
     FM171200 34006KT 3SM BR OVC008
     FM171500 31007KT P6SM BKN008
     FM171800 30008KT P6SM BKN015
     FM172100 29008KT P6SM BKN050
     FM180300 28010G20KT P6SM BKN025=



    US Dept of Commerce
    National Oceanic and Atmospheric Administration
    National Weather Service
    1325 East West Highway
    Silver Spring, MD 20910
    Page Author: NWS Internet Services Team
Disclaimer
Information Quality
Credits
Glossary
Privacy Policy
Freedom of Information Act (FOIA)
About Us
Career Opportunities